Etusivu
METAR-TAF:

METAR-TAF

Lentoasemat :

Piacenza, Italia

Leveyspiiri: 44-55N, Pituuspiiri: 009-44E, korkeus merenpinnasta: 134 m

Tämänhetkinen sää

Tämä raportti tehtiin 47 minuuttia sitten, kello 16.55 UTC
Tuuli 8 kn idästä/kaakosta
Lämpötila 11°C
Kosteus 100%
Ilmanpaine 1013 hPa
Näkyvyys 10 km tai enemmän
Hajonneita pilviä 6000 ft:n korkeudessa
heikkoa tihkusadetta

METAR: LIMS 301655Z 12008KT 9999 -DZ BKN060 11/11 Q1013 RMK BKN VIS MIN 9999 WIND THR30 10008KT BLU

Aika: 19:42 (17:42 UTC)


TAF: puuttuu

Säähavainnot ja -ennusteet yli 4000 lentoasemalta (METAR- ja TAF-raportit).

Käytössä olevat sääasemat on merkitty karttaan keltaisilla ja punaisilla pisteillä.

Aseta hiiri pisteen päälle nähdäksesi sääaseman nimen.

Klikkaa sitten nähdäksesi säähavainnot ja -ennusteet.

Kartan vaihtaminen: klikkaa mustalla rastilla varustettuja vihreitä pisteitä, niin voit zoomata sisään; viivalla varustettua vihreää pistettä, niin voit zoomata ulos tai vihreitä nuolia, niin pääset viereisille kartoille.


METAR-TAF: